Hlavní strana
METAR-TAF:

METAR-TAF

Letiště :

Friedrichshafen, Německo

Bodensee

zeměpisná šířka: 47-40N, zeměpisná délka: 009-31E, výška: 416 m

Aktuální stav počasí

Zpráva byla vytvořena před 33 minutami, v 04:20 UTC
vítr z různých směrů 2 kt
Teplota -1°C
Vlhkost vzduchu 100%
Tlak 1024 hPa
Viditelnost: 6000 m

METAR: EDNY 180420Z AUTO VRB02KT 6000 // SCT031/// BKN044/// OVC120/// M01/M01 Q1024

Čas: 05:53 (04:53 UTC)

Předpověď počasí

Zpráva byla vytvořena před 5 hodinami a 53 minutami, v 23:00 UTC
Předpověď platná od 18 v 00 UTC do 18 v 24 UTC
Severoseverovýchodní vítr 7 kt
Viditelnost: 3500 m
Polojasno ve výšce 1000 ft
Oblačno až skoro zataženo ve výšce 2000 ft
slabé sněžení
Pravděpodobnost 30% :
Dočasný
od 18 v 00 UTC do 18 v 05 UTC
Viditelnost: 1400 m
Oblačno až skoro zataženo ve výšce 400 ft
slabé sněžení
Změna
od 18 v 08 UTC do 18 v 10 UTC
Viditelnost 10 km a více

TAF: EDNY 172300Z 1800/1824 02007KT 3500 -SN SCT010 BKN020 PROB30 TEMPO 1800/1805 1400 -SN BKN004 BECMG 1808/1810 9999

Stav a předpovědi počasí z více než 4 000 letišť (zprávy METAR a TAF).

Červené a žluté tečky na mapě představují dostupné meteorologické stanice.

Když kurzor umístíte na tečku, zobrazí se název stanice.

Pak kliknutím zobrazíte stav a předpověď počasí.

Chcete-li změnit mapu, kliknutím na zelené tlačítko se znaménkem +mapu přiblížíte, kliknutím na zelené tlačítko se znaménkem – mapu oddálíte a kliknutím na zelené šipky přejdete na sousední mapy.


METAR-TAF: